Time;durP1;ratioP1;P1;durP2;ratioP2;P2;SDS_P1;SDS_P2;PMS_P1;PMS_P2;Temp;Humidity;BMP_temperature;BMP_pressure;BME280_temperature;BME280_humidity;BME280_pressure;Samples;Min_cycle;Max_cycle;Signal;HPM_P1;HPM_P2
2023/09/27 00:02:14;;;;;;;1.27;1.27;;;;;12.50;96509.00;;;;5014408;28;20622;-56
2023/09/27 00:04:43;;;;;;;1.60;1.50;;;;;12.50;96509.00;;;;5014512;28;20212;-56
2023/09/27 00:07:17;;;;;;;1.63;1.53;;;;;12.60;96500.00;;;;5014673;28;20716;-56
2023/09/27 00:09:52;;;;;;;2.17;1.43;;;;;12.50;96507.00;;;;5014285;28;20177;-56
2023/09/27 00:12:22;;;;;;;1.67;1.57;;;;;12.60;96512.00;;;;5014508;28;20213;-56
2023/09/27 00:14:51;;;;;;;2.30;2.10;;;;;12.50;96498.00;;;;5014486;28;20216;-56
2023/09/27 00:17:24;;;;;;;1.33;1.33;;;;;12.60;96490.00;;;;5013411;28;20232;-56
2023/09/27 00:20:01;;;;;;;0.90;0.90;;;;;12.60;96479.00;;;;5014194;28;20212;-57
2023/09/27 00:22:33;;;;;;;1.60;1.50;;;;;12.50;96483.00;;;;5014000;28;20252;-56
2023/09/27 00:25:04;;;;;;;1.33;1.23;;;;;12.50;96486.00;;;;5013972;28;20252;-56
2023/09/27 00:27:37;;;;;;;2.57;1.93;;;;;12.40;96495.00;;;;5014290;28;20190;-56
2023/09/27 00:30:09;;;;;;;1.50;1.40;;;;;12.30;96495.00;;;;5014032;28;20206;-56
2023/09/27 00:32:41;;;;;;;1.80;1.70;;;;;12.20;96496.00;;;;5014062;28;20210;-56
2023/09/27 00:35:19;;;;;;;2.20;1.57;;;;;12.10;96499.00;;;;5013926;28;20178;-56
2023/09/27 00:37:48;;;;;;;1.17;1.17;;;;;12.00;96486.00;;;;5014481;28;20185;-56
2023/09/27 00:40:24;;;;;;;1.53;1.40;;;;;12.00;96490.00;;;;5012963;28;20217;-56
2023/09/27 00:42:53;;;;;;;1.40;1.40;;;;;12.10;96488.00;;;;5013789;28;20220;-56
2023/09/27 00:45:21;;;;;;;0.90;0.90;;;;;12.10;96492.00;;;;4995992;28;20256;-56
2023/09/27 00:47:56;;;;;;;1.40;1.30;;;;;12.00;96491.00;;;;5013602;28;20201;-57
2023/09/27 00:50:24;;;;;;;0.80;0.80;;;;;11.90;96487.00;;;;5013691;28;20212;-57
2023/09/27 00:53:04;;;;;;;1.77;1.67;;;;;11.60;96492.00;;;;5013570;28;20715;-57
2023/09/27 00:55:33;;;;;;;1.20;1.20;;;;;11.80;96495.00;;;;5013735;28;20495;-57
2023/09/27 00:58:17;;;;;;;0.90;0.90;;;;;11.90;96486.00;;;;5013679;28;20185;-57
2023/09/27 01:00:58;;;;;;;1.00;1.00;;;;;11.80;96498.00;;;;5013766;28;20276;-57
2023/09/27 01:03:31;;;;;;;0.90;0.90;;;;;11.80;96493.00;;;;5013416;28;20177;-57
2023/09/27 01:06:12;;;;;;;1.00;1.00;;;;;11.80;96495.00;;;;5013821;28;20189;-56
2023/09/27 01:08:43;;;;;;;1.40;1.30;;;;;11.70;96484.00;;;;5013424;28;20239;-57
2023/09/27 01:11:12;;;;;;;0.97;0.97;;;;;11.80;96487.00;;;;5013318;28;20565;-56
2023/09/27 01:13:42;;;;;;;1.30;1.20;;;;;11.90;96500.00;;;;5013310;28;20202;-57
2023/09/27 01:16:14;;;;;;;1.00;1.00;;;;;11.90;96497.00;;;;5013720;28;20182;-56
2023/09/27 01:18:43;;;;;;;1.87;1.23;;;;;11.80;96500.00;;;;5013234;28;20197;-57
2023/09/27 01:21:10;;;;;;;1.20;1.10;;;;;11.80;96499.00;;;;5013195;28;20205;-58
2023/09/27 01:24:03;;;;;;;1.00;1.00;;;;;11.70;96493.00;;;;5013537;28;20536;-56
2023/09/27 01:26:43;;;;;;;1.00;1.00;;;;;11.80;96493.00;;;;5013295;28;20181;-56
2023/09/27 01:29:15;;;;;;;1.10;1.10;;;;;11.80;96499.00;;;;5013668;28;20260;-57
2023/09/27 01:31:43;;;;;;;0.73;0.73;;;;;11.70;96497.00;;;;5013092;28;20312;-56
2023/09/27 01:34:10;;;;;;;1.10;1.10;;;;;11.70;96494.00;;;;5013144;28;20281;-56
2023/09/27 01:36:37;;;;;;;1.17;1.13;;;;;11.60;96490.00;;;;5013186;28;20197;-56
2023/09/27 01:39:07;;;;;;;1.17;1.17;;;;;11.60;96502.00;;;;5013296;28;20517;-56
2023/09/27 01:41:41;;;;;;;0.73;0.73;;;;;11.60;96486.00;;;;5012937;28;20213;-56
2023/09/27 01:44:11;;;;;;;1.33;1.20;;;;;11.60;96486.00;;;;5013597;28;20295;-56
2023/09/27 01:46:42;;;;;;;0.90;0.90;;;;;11.70;96490.00;;;;5012952;28;20185;-56
2023/09/27 01:49:10;;;;;;;1.17;1.17;;;;;11.50;96489.00;;;;5013381;28;20185;-56
2023/09/27 01:51:42;;;;;;;1.63;1.53;;;;;11.50;96488.00;;;;5015278;28;20312;-56
2023/09/27 01:54:13;;;;;;;1.40;1.30;;;;;11.60;96480.00;;;;5017228;28;20265;-56
2023/09/27 01:56:44;;;;;;;1.10;1.10;;;;;11.50;96490.00;;;;5016936;28;20569;-56
2023/09/27 01:59:18;;;;;;;1.67;1.57;;;;;11.50;96494.00;;;;5017148;28;20255;-58
2023/09/27 02:01:47;;;;;;;1.80;1.70;;;;;11.40;96497.00;;;;5016823;28;20210;-56
2023/09/27 02:04:15;;;;;;;1.00;1.00;;;;;11.30;96501.00;;;;5016956;28;20197;-57
2023/09/27 02:06:45;;;;;;;1.10;1.10;;;;;11.10;96491.00;;;;5016684;28;20193;-57
2023/09/27 02:09:14;;;;;;;1.37;1.37;;;;;11.20;96490.00;;;;5016628;28;20194;-57
2023/09/27 02:11:41;;;;;;;0.80;0.80;;;;;11.40;96484.00;;;;5016583;28;20221;-56
2023/09/27 02:14:12;;;;;;;1.20;1.10;;;;;11.30;96483.00;;;;5016567;28;20193;-57
2023/09/27 02:16:41;;;;;;;1.40;1.37;;;;;11.30;96491.00;;;;5016680;28;20193;-56
2023/09/27 02:19:08;;;;;;;1.10;1.10;;;;;11.10;96491.00;;;;5016456;28;20235;-56
2023/09/27 02:21:42;;;;;;;0.97;0.97;;;;;11.10;96490.00;;;;5016615;28;20217;-56
2023/09/27 02:24:10;;;;;;;0.90;0.90;;;;;11.00;96498.00;;;;5016789;28;20185;-56
2023/09/27 02:26:40;;;;;;;0.90;0.90;;;;;10.80;96501.00;;;;5016481;28;20541;-56
2023/09/27 02:29:10;;;;;;;1.10;1.10;;;;;10.90;96497.00;;;;4998514;28;20571;-56
2023/09/27 02:31:42;;;;;;;0.93;0.93;;;;;10.90;96501.00;;;;5014984;28;20404;-56
2023/09/27 02:34:14;;;;;;;1.40;1.30;;;;;10.90;96493.00;;;;5016657;28;20182;-56
2023/09/27 02:36:42;;;;;;;1.50;1.43;;;;;10.80;96506.00;;;;5016392;28;20192;-56
2023/09/27 02:39:12;;;;;;;1.00;1.00;;;;;10.90;96489.00;;;;5016073;28;20670;-56
2023/09/27 02:41:48;;;;;;;1.00;1.00;;;;;10.60;96498.00;;;;4998303;28;20221;-56
2023/09/27 02:44:18;;;;;;;0.83;0.83;;;;;10.50;96496.00;;;;5016248;28;20181;-56
2023/09/27 02:46:46;;;;;;;1.17;1.07;;;;;10.60;96502.00;;;;5016476;28;20196;-56
2023/09/27 02:49:19;;;;;;;1.10;1.10;;;;;10.60;96500.00;;;;5016147;28;20657;-57
2023/09/27 02:51:51;;;;;;;2.33;1.50;;;;;10.60;96494.00;;;;5015714;28;20243;-57
2023/09/27 02:54:19;;;;;;;1.07;1.07;;;;;10.60;96490.00;;;;5016191;28;20190;-56
2023/09/27 02:56:54;;;;;;;0.90;0.90;;;;;10.60;96493.00;;;;5015801;28;20220;-56
2023/09/27 02:59:21;;;;;;;2.37;1.77;;;;;10.40;96477.00;;;;5016035;28;20181;-56
2023/09/27 03:01:51;;;;;;;1.63;1.50;;;;;10.40;96478.00;;;;5015169;28;20210;-56
2023/09/27 03:04:21;;;;;;;1.10;1.10;;;;;10.40;96476.00;;;;5014839;28;20190;-56
2023/09/27 03:06:49;;;;;;;1.23;1.13;;;;;10.50;96483.00;;;;5015526;28;20184;-56
2023/09/27 03:09:27;;;;;;;0.83;0.83;;;;;10.70;96475.00;;;;5015630;28;20280;-57
2023/09/27 03:12:01;;;;;;;27.20;1.63;;;;;10.70;96486.00;;;;5015409;28;20315;-56
2023/09/27 03:14:33;;;;;;;0.80;0.80;;;;;10.70;96480.00;;;;5015850;28;20182;-56
2023/09/27 03:17:03;;;;;;;1.30;1.20;;;;;10.70;96476.00;;;;5015326;28;20188;-56
2023/09/27 03:19:32;;;;;;;0.60;0.60;;;;;10.60;96474.00;;;;5015466;28;20247;-56
2023/09/27 03:22:05;;;;;;;0.90;0.90;;;;;10.60;96471.00;;;;5015265;28;20237;-56
2023/09/27 03:24:37;;;;;;;1.20;1.13;;;;;10.50;96472.00;;;;5015753;28;20507;-56
2023/09/27 03:27:11;;;;;;;1.20;1.13;;;;;10.40;96472.00;;;;5015048;28;20197;-56
2023/09/27 03:29:39;;;;;;;1.07;1.07;;;;;10.40;96466.00;;;;5015063;28;20182;-56
2023/09/27 03:32:12;;;;;;;1.60;1.47;;;;;10.30;96471.00;;;;5015423;28;20225;-56
2023/09/27 03:34:40;;;;;;;0.80;0.80;;;;;10.30;96474.00;;;;4998100;28;20224;-56
2023/09/27 03:37:09;;;;;;;1.43;1.30;;;;;10.40;96478.00;;;;5015041;28;20200;-56
2023/09/27 03:39:52;;;;;;;1.00;1.00;;;;;10.30;96486.00;;;;5015201;28;20205;-56
2023/09/27 03:42:39;;;;;;;1.53;1.43;;;;;10.30;96487.00;;;;5014762;28;20320;-56
2023/09/27 03:45:55;;;;;;;1.30;1.27;;;;;10.30;96489.00;;;;5015052;28;20178;-56
2023/09/27 03:48:41;;;;;;;1.00;1.00;;;;;10.30;96495.00;;;;5015156;28;20178;-56
2023/09/27 03:51:24;;;;;;;0.70;0.70;;;;;10.20;96496.00;;;;5013687;28;20244;-57
2023/09/27 03:54:10;;;;;;;1.33;1.27;;;;;10.30;96491.00;;;;5015202;28;20248;-56
2023/09/27 03:56:48;;;;;;;1.07;1.07;;;;;10.30;96497.00;;;;5014247;28;20225;-56
2023/09/27 03:59:25;;;;;;;1.37;1.37;;;;;10.40;96502.00;;;;5014762;28;20539;-56
2023/09/27 04:02:22;;;;;;;1.47;1.37;;;;;10.40;96511.00;;;;5014713;28;20217;-56
2023/09/27 04:05:03;;;;;;;1.37;1.20;;;;;10.20;96497.00;;;;5014666;28;20636;-56
2023/09/27 04:07:33;;;;;;;0.70;0.70;;;;;10.20;96506.00;;;;5014679;28;20189;-56
2023/09/27 04:10:13;;;;;;;0.93;0.93;;;;;10.20;96503.00;;;;5014572;28;20178;-56
2023/09/27 04:12:49;;;;;;;1.50;1.27;;;;;10.20;96495.00;;;;5014470;28;20213;-56
2023/09/27 04:15:21;;;;;;;1.20;1.20;;;;;10.10;96504.00;;;;5014536;28;20186;-56
2023/09/27 04:17:51;;;;;;;1.43;1.37;;;;;10.10;96498.00;;;;5014343;28;20190;-56
2023/09/27 04:20:19;;;;;;;0.73;0.73;;;;;10.20;96497.00;;;;5014092;28;20204;-56
2023/09/27 04:22:54;;;;;;;0.80;0.80;;;;;10.30;96496.00;;;;5014244;28;20260;-56
2023/09/27 04:25:30;;;;;;;1.40;1.30;;;;;10.20;96489.00;;;;5014273;28;20184;-56
2023/09/27 04:28:00;;;;;;;1.00;1.00;;;;;10.30;96497.00;;;;5014016;28;20178;-56
2023/09/27 04:30:34;;;;;;;0.80;0.80;;;;;10.30;96489.00;;;;5014289;28;20248;-56
2023/09/27 04:33:12;;;;;;;1.00;1.00;;;;;10.30;96489.00;;;;5014022;28;20225;-56
2023/09/27 04:36:04;;;;;;;9.17;3.33;;;;;10.40;96492.00;;;;5014220;28;20219;-56
2023/09/27 04:38:46;;;;;;;1.97;1.87;;;;;10.50;96491.00;;;;5014038;28;20178;-57
2023/09/27 04:41:20;;;;;;;2.07;1.97;;;;;10.50;96500.00;;;;4996150;28;20584;-56
2023/09/27 04:43:57;;;;;;;1.70;1.60;;;;;10.30;96504.00;;;;4996021;28;20527;-56
2023/09/27 04:46:30;;;;;;;1.00;1.00;;;;;10.20;96511.00;;;;5013784;28;20188;-56
2023/09/27 04:49:02;;;;;;;0.90;0.90;;;;;10.30;96510.00;;;;5013576;28;20216;-56
2023/09/27 04:51:30;;;;;;;1.57;1.43;;;;;10.30;96512.00;;;;4995809;28;20228;-56
2023/09/27 04:54:23;;;;;;;1.00;1.00;;;;;10.20;96513.00;;;;5014123;28;20182;-56
2023/09/27 04:56:52;;;;;;;1.00;1.00;;;;;10.10;96510.00;;;;5013444;28;20548;-56
2023/09/27 04:59:25;;;;;;;1.37;1.30;;;;;10.00;96506.00;;;;5013728;28;20250;-56
2023/09/27 05:01:54;;;;;;;1.33;1.33;;;;;9.80;96499.00;;;;5013863;28;20584;-56
2023/09/27 05:04:42;;;;;;;1.30;1.30;;;;;9.70;96511.00;;;;5013456;28;20185;-56
2023/09/27 05:07:12;;;;;;;1.27;1.27;;;;;9.70;96515.00;;;;5013330;28;20637;-56
2023/09/27 05:09:41;;;;;;;1.00;1.00;;;;;9.70;96523.00;;;;5013549;28;20201;-56
2023/09/27 05:12:09;;;;;;;2.23;1.20;;;;;9.70;96537.00;;;;5013169;28;20699;-56
2023/09/27 05:14:46;;;;;;;1.60;1.50;;;;;9.60;96542.00;;;;5012952;28;20195;-56
2023/09/27 05:17:21;;;;;;;0.93;0.93;;;;;9.50;96531.00;;;;5013426;28;20169;-57
2023/09/27 05:19:48;;;;;;;1.53;1.43;;;;;9.30;96535.00;;;;5013388;28;20181;-57
2023/09/27 05:25:03;;;;;;;1.27;1.23;;;;;9.60;96533.00;;;;5011608;28;20724;-56
2023/09/27 05:27:34;;;;;;;1.07;1.07;;;;;9.70;96527.00;;;;5012947;28;20220;-56
2023/09/27 05:30:04;;;;;;;0.97;0.97;;;;;9.70;96526.00;;;;5013171;28;20193;-56
2023/09/27 05:32:38;;;;;;;0.97;0.97;;;;;9.90;96529.00;;;;5013039;28;20696;-56
2023/09/27 05:35:06;;;;;;;1.40;1.40;;;;;9.90;96524.00;;;;5013218;28;20526;-56
2023/09/27 05:37:35;;;;;;;1.30;1.20;;;;;9.80;96526.00;;;;5011752;28;20271;-56
2023/09/27 05:40:04;;;;;;;1.50;1.27;;;;;9.90;96531.00;;;;5013627;28;20217;-56
2023/09/27 05:42:31;;;;;;;1.30;1.30;;;;;9.80;96529.00;;;;5013068;28;20209;-56
2023/09/27 05:45:01;;;;;;;1.20;1.20;;;;;9.80;96529.00;;;;5013322;28;20276;-56
2023/09/27 05:47:31;;;;;;;1.13;1.13;;;;;9.70;96534.00;;;;5013369;28;20568;-57
2023/09/27 05:50:00;;;;;;;1.17;1.17;;;;;9.80;96531.00;;;;5013362;28;20204;-57
2023/09/27 05:52:33;;;;;;;1.43;1.33;;;;;9.90;96520.00;;;;5013610;28;20235;-57
2023/09/27 05:55:00;;;;;;;2.17;1.57;;;;;9.70;96529.00;;;;5013415;28;20631;-56
2023/09/27 05:57:33;;;;;;;1.10;1.10;;;;;9.70;96531.00;;;;5013219;28;20276;-56
2023/09/27 06:00:14;;;;;;;2.10;1.37;;;;;9.70;96537.00;;;;5013641;28;20181;-57
2023/09/27 06:02:43;;;;;;;1.10;1.10;;;;;9.80;96540.00;;;;5013499;28;20251;-57
2023/09/27 06:05:18;;;;;;;1.23;1.23;;;;;9.90;96537.00;;;;5012777;28;20189;-57
2023/09/27 06:07:47;;;;;;;2.17;2.07;;;;;9.90;96535.00;;;;4995228;28;20212;-57
2023/09/27 06:10:19;;;;;;;1.30;1.20;;;;;9.90;96533.00;;;;5012925;28;20661;-57
2023/09/27 06:12:47;;;;;;;1.33;1.23;;;;;9.90;96531.00;;;;5012651;28;20217;-57
2023/09/27 06:15:18;;;;;;;1.87;1.77;;;;;10.00;96533.00;;;;5012815;28;20217;-58
2023/09/27 06:17:45;;;;;;;0.97;0.97;;;;;10.00;96540.00;;;;4990836;28;20691;-56
2023/09/27 06:20:21;;;;;;;1.50;1.40;;;;;10.00;96542.00;;;;4982254;28;20671;-60
2023/09/27 06:22:57;;;;;;;6.83;2.30;;;;;10.00;96548.00;;;;4994551;28;20255;-61
2023/09/27 06:25:29;;;;;;;1.23;1.23;;;;;9.90;96546.00;;;;5009406;28;20688;-61
2023/09/27 06:28:00;;;;;;;1.27;1.27;;;;;10.00;96550.00;;;;5011175;28;20206;-60
2023/09/27 06:30:28;;;;;;;1.27;1.13;;;;;10.00;96554.00;;;;4997098;28;20286;-59
2023/09/27 06:32:56;;;;;;;1.70;1.60;;;;;10.10;96552.00;;;;4978112;28;20697;-59
2023/09/27 06:35:27;;;;;;;4.10;1.63;;;;;10.20;96556.00;;;;4995532;28;20252;-59
2023/09/27 06:37:54;;;;;;;1.87;1.77;;;;;10.30;96554.00;;;;5013461;28;20191;-57
2023/09/27 06:40:30;;;;;;;1.30;1.30;;;;;10.30;96538.00;;;;4976951;28;20260;-57
2023/09/27 06:42:57;;;;;;;2.20;2.10;;;;;10.50;96545.00;;;;4994888;28;20220;-57
2023/09/27 06:45:25;;;;;;;2.40;2.20;;;;;10.60;96544.00;;;;5001727;28;20201;-58
2023/09/27 06:47:59;;;;;;;1.00;1.00;;;;;10.80;96548.00;;;;4999068;28;20198;-57
2023/09/27 06:50:29;;;;;;;1.77;1.20;;;;;10.90;96548.00;;;;4995324;28;20214;-58
2023/09/27 06:52:59;;;;;;;1.63;1.53;;;;;11.00;96545.00;;;;5014093;28;20586;-57
2023/09/27 06:55:29;;;;;;;1.40;1.37;;;;;11.10;96558.00;;;;5013606;28;20541;-57
2023/09/27 06:58:06;;;;;;;1.43;1.37;;;;;11.20;96545.00;;;;5001980;28;20204;-57
2023/09/27 07:00:35;;;;;;;1.20;1.20;;;;;11.40;96543.00;;;;4994099;28;20194;-56
2023/09/27 07:03:09;;;;;;;1.53;1.43;;;;;11.50;96544.00;;;;5003654;28;20244;-56
2023/09/27 07:05:41;;;;;;;2.47;1.53;;;;;11.50;96536.00;;;;4996119;28;20193;-55
2023/09/27 07:08:15;;;;;;;11.83;1.97;;;;;11.60;96543.00;;;;4994939;28;20278;-55
2023/09/27 07:10:44;;;;;;;3.67;1.83;;;;;11.70;96544.00;;;;4993599;28;20209;-55
2023/09/27 07:13:13;;;;;;;3.90;1.57;;;;;11.70;96551.00;;;;4996312;28;20297;-55
2023/09/27 07:15:47;;;;;;;1.40;1.40;;;;;11.80;96546.00;;;;5003735;28;20198;-57
2023/09/27 07:18:15;;;;;;;1.43;1.33;;;;;11.90;96543.00;;;;4993892;28;20194;-55
2023/09/27 07:20:50;;;;;;;1.07;1.07;;;;;12.00;96545.00;;;;5005999;28;20669;-55
2023/09/27 07:23:20;;;;;;;0.87;0.87;;;;;12.00;96537.00;;;;5013448;28;20220;-55
2023/09/27 07:26:00;;;;;;;0.60;0.60;;;;;12.00;96545.00;;;;4994379;28;20210;-56
2023/09/27 07:28:29;;;;;;;0.70;0.70;;;;;12.00;96542.00;;;;5000112;28;20268;-55
2023/09/27 07:31:06;;;;;;;1.23;1.13;;;;;12.20;96541.00;;;;4997150;28;20221;-56
2023/09/27 07:33:36;;;;;;;0.87;0.87;;;;;12.30;96544.00;;;;4993727;28;20213;-56
2023/09/27 07:36:11;;;;;;;0.80;0.80;;;;;12.40;96539.00;;;;4996941;28;20247;-55
2023/09/27 07:38:48;;;;;;;1.10;1.10;;;;;12.60;96545.00;;;;5012494;28;20722;-55
2023/09/27 07:41:16;;;;;;;0.83;0.83;;;;;12.70;96544.00;;;;5002645;28;20276;-55
2023/09/27 07:43:47;;;;;;;1.00;1.00;;;;;12.80;96548.00;;;;5004425;28;20557;-56
2023/09/27 07:46:18;;;;;;;0.87;0.87;;;;;12.90;96543.00;;;;5012784;28;20224;-56
2023/09/27 07:48:56;;;;;;;1.27;1.17;;;;;13.00;96545.00;;;;5004719;28;20680;-56
2023/09/27 07:51:28;;;;;;;1.83;1.30;;;;;13.10;96540.00;;;;5010907;28;20653;-57
2023/09/27 07:54:05;;;;;;;0.90;0.87;;;;;13.20;96540.00;;;;5014081;28;20638;-56
2023/09/27 07:56:39;;;;;;;0.80;0.80;;;;;13.20;96543.00;;;;4993904;28;20216;-56
2023/09/27 07:59:07;;;;;;;1.00;1.00;;;;;13.50;96536.00;;;;5009050;28;20239;-56
2023/09/27 08:01:36;;;;;;;1.77;1.67;;;;;13.50;96536.00;;;;5011491;28;20233;-56
2023/09/27 08:04:07;;;;;;;0.87;0.87;;;;;13.60;96528.00;;;;4994364;28;20190;-55
2023/09/27 08:06:36;;;;;;;1.17;1.17;;;;;13.80;96526.00;;;;5011372;28;20197;-55
2023/09/27 08:09:06;;;;;;;1.00;1.00;;;;;13.90;96529.00;;;;5012803;28;20203;-55
2023/09/27 08:11:33;;;;;;;0.90;0.90;;;;;14.00;96531.00;;;;5012387;28;20315;-56
2023/09/27 08:14:01;;;;;;;0.80;0.80;;;;;14.20;96523.00;;;;5012988;28;20221;-56
2023/09/27 08:16:29;;;;;;;0.80;0.80;;;;;14.30;96527.00;;;;5012264;28;20203;-56
2023/09/27 08:18:56;;;;;;;0.97;0.97;;;;;14.40;96531.00;;;;5012606;28;20197;-55
2023/09/27 08:21:24;;;;;;;1.13;1.13;;;;;14.60;96529.00;;;;4994366;28;20312;-56
2023/09/27 08:23:53;;;;;;;5.70;1.30;;;;;14.70;96530.00;;;;5005103;28;20212;-56
2023/09/27 08:26:20;;;;;;;0.73;0.73;;;;;14.80;96537.00;;;;4982928;28;20212;-56
2023/09/27 08:28:48;;;;;;;0.80;0.80;;;;;14.90;96531.00;;;;5011708;28;20236;-56
2023/09/27 08:31:17;;;;;;;0.80;0.80;;;;;15.20;96532.00;;;;5006342;28;20590;-56
2023/09/27 08:33:44;;;;;;;1.27;1.23;;;;;15.30;96524.00;;;;4992712;28;20685;-56
2023/09/27 08:36:12;;;;;;;0.80;0.80;;;;;15.50;96528.00;;;;4992794;28;20206;-57
2023/09/27 08:38:39;;;;;;;0.73;0.73;;;;;15.60;96518.00;;;;4974710;28;20706;-57
2023/09/27 08:41:09;;;;;;;1.10;1.10;;;;;15.70;96519.00;;;;4995167;28;20253;-57
2023/09/27 08:43:38;;;;;;;0.90;0.90;;;;;15.80;96515.00;;;;4993901;28;20217;-57
2023/09/27 08:46:07;;;;;;;1.53;1.43;;;;;15.90;96513.00;;;;4990876;28;20202;-57
2023/09/27 08:48:36;;;;;;;0.77;0.77;;;;;16.00;96502.00;;;;4992470;28;20194;-58
2023/09/27 08:51:04;;;;;;;0.93;0.93;;;;;16.10;96510.00;;;;4992157;28;20264;-57
2023/09/27 08:53:34;;;;;;;1.30;1.30;;;;;16.30;96501.00;;;;5001013;28;20224;-57
2023/09/27 08:56:04;;;;;;;0.90;0.90;;;;;16.40;96501.00;;;;5012505;28;20283;-57
2023/09/27 08:58:34;;;;;;;1.23;1.23;;;;;16.60;96498.00;;;;5012191;28;20201;-57
2023/09/27 09:01:03;;;;;;;0.60;0.60;;;;;16.70;96490.00;;;;5011407;28;20314;-56
2023/09/27 09:03:32;;;;;;;1.07;1.07;;;;;16.80;96494.00;;;;4990734;28;20740;-56
2023/09/27 09:06:00;;;;;;;0.73;0.73;;;;;17.00;96486.00;;;;4992066;28;20237;-56
2023/09/27 09:08:28;;;;;;;0.83;0.83;;;;;17.10;96477.00;;;;4992062;28;20670;-56
2023/09/27 09:10:56;;;;;;;0.60;0.60;;;;;17.20;96471.00;;;;4991902;28;20190;-57
2023/09/27 09:13:24;;;;;;;0.60;0.60;;;;;17.40;96471.00;;;;4991909;28;20308;-56
2023/09/27 09:15:53;;;;;;;1.20;1.13;;;;;17.50;96473.00;;;;4991859;28;20228;-56
2023/09/27 09:18:31;;;;;;;0.83;0.83;;;;;17.70;96475.00;;;;4974155;28;20682;-57
2023/09/27 09:21:08;;;;;;;1.50;1.40;;;;;17.90;96467.00;;;;4991763;28;20190;-57
2023/09/27 09:23:38;;;;;;;1.00;1.00;;;;;17.90;96465.00;;;;4992138;28;20188;-57
2023/09/27 09:26:09;;;;;;;0.70;0.70;;;;;18.10;96467.00;;;;4992064;28;20217;-57
2023/09/27 09:28:55;;;;;;;7.93;1.37;;;;;18.30;96464.00;;;;4992411;28;20196;-57
2023/09/27 09:31:26;;;;;;;0.80;0.80;;;;;18.40;96464.00;;;;4993694;28;20233;-57
2023/09/27 09:34:04;;;;;;;1.00;1.00;;;;;18.50;96461.00;;;;4992552;28;20309;-58
2023/09/27 09:36:32;;;;;;;0.97;0.97;;;;;18.50;96465.00;;;;4992044;28;20250;-57
2023/09/27 09:39:13;;;;;;;0.93;0.90;;;;;18.70;96452.00;;;;4991792;28;20206;-57
2023/09/27 09:41:47;;;;;;;0.97;0.97;;;;;18.90;96458.00;;;;5009225;28;20212;-56
2023/09/27 09:44:19;;;;;;;0.83;0.83;;;;;19.10;96457.00;;;;5009492;28;20625;-55
2023/09/27 09:46:49;;;;;;;0.90;0.90;;;;;19.30;96456.00;;;;4991979;28;20198;-55
2023/09/27 09:49:17;;;;;;;0.50;0.50;;;;;19.30;96448.00;;;;4991956;28;20252;-57
2023/09/27 09:51:48;;;;;;;0.60;0.60;;;;;19.40;96445.00;;;;4991795;28;20232;-57
2023/09/27 09:54:26;;;;;;;0.70;0.70;;;;;19.70;96448.00;;;;4991608;28;20221;-55
2023/09/27 09:56:57;;;;;;;1.00;1.00;;;;;19.80;96443.00;;;;5004767;28;20259;-57
2023/09/27 09:59:35;;;;;;;0.90;0.90;;;;;20.00;96448.00;;;;5011151;28;20200;-57
2023/09/27 10:02:14;;;;;;;1.00;1.00;;;;;20.00;96436.00;;;;5011751;28;20304;-57
2023/09/27 10:04:43;;;;;;;1.20;1.20;;;;;20.30;96440.00;;;;5010814;28;20188;-57
2023/09/27 10:07:10;;;;;;;1.43;1.33;;;;;20.40;96432.00;;;;5011216;28;20201;-58
2023/09/27 10:09:38;;;;;;;0.70;0.70;;;;;20.50;96435.00;;;;4998437;28;20280;-57
2023/09/27 10:12:06;;;;;;;0.97;0.97;;;;;20.60;96436.00;;;;4993022;28;20213;-57
2023/09/27 10:14:34;;;;;;;0.80;0.80;;;;;20.90;96431.00;;;;5022423;28;20236;-57
2023/09/27 10:17:03;;;;;;;0.80;0.80;;;;;21.00;96430.00;;;;5006085;28;20561;-57
2023/09/27 10:19:31;;;;;;;1.10;1.10;;;;;21.00;96426.00;;;;4977666;28;20632;-54
2023/09/27 10:22:05;;;;;;;1.05;1.02;;;;;21.00;96415.00;;;;4995463;28;20222;-57
2023/09/27 10:24:35;;;;;;;0.93;0.93;;;;;21.20;96413.00;;;;5014368;28;20211;-55
2023/09/27 10:27:02;;;;;;;0.70;0.70;;;;;21.30;96410.00;;;;5014594;28;20197;-55
2023/09/27 10:29:30;;;;;;;0.80;0.80;;;;;21.40;96408.00;;;;4994346;28;20194;-55
2023/09/27 10:32:20;;;;;;;0.80;0.80;;;;;21.60;96395.00;;;;4994404;28;20214;-56
2023/09/27 10:34:52;;;;;;;0.90;0.90;;;;;21.80;96400.00;;;;5001285;28;20213;-56
2023/09/27 10:38:08;;;;;;;0.80;0.80;;;;;21.90;96398.00;;;;4998429;28;20190;-56
2023/09/27 10:40:43;;;;;;;0.63;0.63;;;;;22.20;96398.00;;;;4981589;28;20222;-56
2023/09/27 10:43:10;;;;;;;0.60;0.60;;;;;22.40;96395.00;;;;4989954;28;20728;-56
2023/09/27 10:45:38;;;;;;;1.42;0.70;;;;;22.50;96398.00;;;;4994420;28;20202;-59
2023/09/27 10:48:16;;;;;;;0.50;0.50;;;;;22.70;96397.00;;;;4994364;28;20201;-57
2023/09/27 10:50:52;;;;;;;1.00;1.00;;;;;22.90;96394.00;;;;5001716;28;20288;-61
2023/09/27 10:53:20;;;;;;;0.75;0.75;;;;;23.00;96399.00;;;;5010957;28;20209;-57
2023/09/27 10:55:48;;;;;;;3.10;0.73;;;;;22.90;96389.00;;;;5012868;28;20211;-57
2023/09/27 10:58:16;;;;;;;0.88;0.88;;;;;23.00;96394.00;;;;5011119;28;20197;-57
2023/09/27 11:00:55;;;;;;;1.02;1.02;;;;;22.60;96386.00;;;;4994199;28;20198;-57
2023/09/27 11:03:24;;;;;;;0.50;0.50;;;;;22.90;96389.00;;;;4994713;28;20554;-55
2023/09/27 11:05:52;;;;;;;0.60;0.60;;;;;23.20;96389.00;;;;5009599;28;20205;-55
2023/09/27 11:08:22;;;;;;;0.60;0.60;;;;;23.30;96386.00;;;;5008674;28;20205;-59
2023/09/27 11:10:52;;;;;;;1.27;1.20;;;;;23.50;96374.00;;;;4994062;28;20205;-60
2023/09/27 11:13:21;;;;;;;0.80;0.80;;;;;23.50;96383.00;;;;4993839;28;20221;-56
2023/09/27 11:15:48;;;;;;;0.60;0.60;;;;;23.80;96388.00;;;;4994488;28;20666;-61
2023/09/27 11:18:23;;;;;;;0.60;0.60;;;;;23.80;96381.00;;;;4994205;28;20209;-59
2023/09/27 11:20:52;;;;;;;0.75;0.75;;;;;24.10;96368.00;;;;4997125;28;21180;-57
2023/09/27 11:23:20;;;;;;;0.73;0.73;;;;;23.90;96376.00;;;;5013570;28;20208;-57
2023/09/27 11:25:51;;;;;;;0.40;0.40;;;;;24.10;96367.00;;;;5013584;28;20314;-56
2023/09/27 11:28:21;;;;;;;0.88;0.88;;;;;24.10;96364.00;;;;5013659;28;20186;-57
2023/09/27 11:30:59;;;;;;;0.75;0.75;;;;;24.00;96363.00;;;;5004771;28;20204;-56
2023/09/27 11:33:34;;;;;;;1.88;0.80;;;;;24.00;96349.00;;;;4993382;28;20197;-56
2023/09/27 11:36:10;;;;;;;0.40;0.40;;;;;24.40;96350.00;;;;4995359;28;20653;-57
2023/09/27 11:38:47;;;;;;;0.80;0.80;;;;;24.60;96356.00;;;;5007747;28;20545;-57
2023/09/27 11:41:18;;;;;;;0.50;0.50;;;;;24.70;96340.00;;;;5014079;28;20220;-57
2023/09/27 11:43:46;;;;;;;1.13;0.90;;;;;24.90;96338.00;;;;5015017;28;20265;-58
2023/09/27 11:46:27;;;;;;;0.75;0.75;;;;;24.90;96338.00;;;;5014218;28;20208;-57
2023/09/27 11:49:07;;;;;;;0.70;0.70;;;;;25.10;96325.00;;;;4996802;28;20193;-58
2023/09/27 11:51:36;;;;;;;0.82;0.82;;;;;25.20;96326.00;;;;5014054;28;20221;-58
2023/09/27 11:54:04;;;;;;;1.95;0.80;;;;;25.20;96323.00;;;;5014347;28;20235;-58
2023/09/27 11:56:34;;;;;;;0.60;0.60;;;;;25.20;96327.00;;;;5014097;28;20205;-58
2023/09/27 11:59:10;;;;;;;0.73;0.73;;;;;25.30;96328.00;;;;5013995;28;20284;-58
2023/09/27 12:01:39;;;;;;;0.60;0.60;;;;;25.50;96316.00;;;;5014216;28;20229;-59
2023/09/27 12:04:06;;;;;;;0.60;0.60;;;;;25.70;96316.00;;;;5013836;28;20533;-57
2023/09/27 12:06:35;;;;;;;1.02;1.02;;;;;25.90;96313.00;;;;4994695;28;20567;-56
2023/09/27 12:09:05;;;;;;;0.77;0.77;;;;;26.10;96313.00;;;;4994550;28;20297;-57
2023/09/27 12:11:34;;;;;;;0.57;0.57;;;;;26.20;96304.00;;;;4994221;28;20292;-57
2023/09/27 12:14:01;;;;;;;0.75;0.75;;;;;25.90;96308.00;;;;4993897;28;20689;-58
2023/09/27 12:16:29;;;;;;;0.82;0.82;;;;;26.00;96298.00;;;;4994384;28;20257;-57
2023/09/27 12:18:57;;;;;;;0.73;0.73;;;;;26.40;96299.00;;;;5013799;28;20209;-57
2023/09/27 12:21:33;;;;;;;2.60;1.10;;;;;26.70;96293.00;;;;5014674;28;20225;-57
2023/09/27 12:24:13;;;;;;;0.65;0.65;;;;;27.00;96295.00;;;;5004678;28;20194;-57
2023/09/27 12:26:41;;;;;;;0.98;0.93;;;;;26.90;96297.00;;;;4994901;28;20273;-59
2023/09/27 12:29:10;;;;;;;0.70;0.70;;;;;27.20;96297.00;;;;4993756;28;20202;-57
2023/09/27 12:31:37;;;;;;;0.60;0.60;;;;;27.40;96289.00;;;;4991001;28;20218;-57
2023/09/27 12:34:05;;;;;;;0.80;0.80;;;;;27.50;96292.00;;;;5012375;28;20314;-57
2023/09/27 12:36:32;;;;;;;0.68;0.68;;;;;27.30;96287.00;;;;5013545;28;20284;-57
2023/09/27 12:39:00;;;;;;;0.65;0.65;;;;;28.00;96285.00;;;;5013346;28;20205;-57
2023/09/27 12:41:31;;;;;;;0.50;0.50;;;;;28.00;96283.00;;;;5013190;28;20218;-57
2023/09/27 12:43:58;;;;;;;0.50;0.50;;;;;27.20;96278.00;;;;4995206;28;20210;-57
2023/09/27 12:46:26;;;;;;;1.00;0.90;;;;;27.00;96275.00;;;;5013557;28;20288;-58